sensor_id;sensor_type;location;lat;lon;timestamp;temperature;humidity
39931;DHT22;26635;-35.248;149.138;2023-09-12T00:01:37;10.80;88.20
39931;DHT22;26635;-35.248;149.138;2023-09-12T00:04:07;10.80;87.60
39931;DHT22;26635;-35.248;149.138;2023-09-12T00:06:39;10.90;87.10
39931;DHT22;26635;-35.248;149.138;2023-09-12T00:09:09;11.00;87.80
39931;DHT22;26635;-35.248;149.138;2023-09-12T00:11:40;11.10;87.30
39931;DHT22;26635;-35.248;149.138;2023-09-12T00:14:10;11.20;87.00
39931;DHT22;26635;-35.248;149.138;2023-09-12T00:16:44;11.20;87.30
39931;DHT22;26635;-35.248;149.138;2023-09-12T00:19:15;11.40;87.60
39931;DHT22;26635;-35.248;149.138;2023-09-12T00:21:47;11.60;87.30
39931;DHT22;26635;-35.248;149.138;2023-09-12T00:24:17;12.00;87.80
39931;DHT22;26635;-35.248;149.138;2023-09-12T00:26:49;12.30;85.90
39931;DHT22;26635;-35.248;149.138;2023-09-12T00:29:19;12.50;86.30
39931;DHT22;26635;-35.248;149.138;2023-09-12T00:31:49;12.60;83.60
39931;DHT22;26635;-35.248;149.138;2023-09-12T00:34:19;12.50;83.40
39931;DHT22;26635;-35.248;149.138;2023-09-12T00:36:50;12.50;84.40
39931;DHT22;26635;-35.248;149.138;2023-09-12T00:39:20;12.50;84.70
39931;DHT22;26635;-35.248;149.138;2023-09-12T00:41:50;12.40;83.40
39931;DHT22;26635;-35.248;149.138;2023-09-12T00:44:21;12.40;84.60
39931;DHT22;26635;-35.248;149.138;2023-09-12T00:46:53;12.40;85.70
39931;DHT22;26635;-35.248;149.138;2023-09-12T00:49:25;12.40;85.30
39931;DHT22;26635;-35.248;149.138;2023-09-12T00:51:57;12.40;84.90
39931;DHT22;26635;-35.248;149.138;2023-09-12T00:54:28;12.40;83.80
39931;DHT22;26635;-35.248;149.138;2023-09-12T00:56:59;12.40;84.20
39931;DHT22;26635;-35.248;149.138;2023-09-12T00:59:29;12.40;84.60
39931;DHT22;26635;-35.248;149.138;2023-09-12T01:02:01;12.50;84.70
39931;DHT22;26635;-35.248;149.138;2023-09-12T01:04:32;12.60;84.10
39931;DHT22;26635;-35.248;149.138;2023-09-12T01:07:06;12.70;83.50
39931;DHT22;26635;-35.248;149.138;2023-09-12T01:09:36;12.70;83.40
39931;DHT22;26635;-35.248;149.138;2023-09-12T01:12:08;12.80;83.90
39931;DHT22;26635;-35.248;149.138;2023-09-12T01:14:38;12.80;84.10
39931;DHT22;26635;-35.248;149.138;2023-09-12T01:17:09;13.00;83.20
39931;DHT22;26635;-35.248;149.138;2023-09-12T01:19:40;13.00;82.70
39931;DHT22;26635;-35.248;149.138;2023-09-12T01:28:02;13.50;82.60
39931;DHT22;26635;-35.248;149.138;2023-09-12T01:30:36;13.80;82.80
39931;DHT22;26635;-35.248;149.138;2023-09-12T01:33:09;14.10;80.90
39931;DHT22;26635;-35.248;149.138;2023-09-12T01:35:40;14.30;81.30
39931;DHT22;26635;-35.248;149.138;2023-09-12T01:38:10;14.50;80.80
39931;DHT22;26635;-35.248;149.138;2023-09-12T01:40:53;14.60;78.40
39931;DHT22;26635;-35.248;149.138;2023-09-12T01:43:27;14.60;78.90
39931;DHT22;26635;-35.248;149.138;2023-09-12T01:46:00;14.70;79.10
39931;DHT22;26635;-35.248;149.138;2023-09-12T01:48:36;14.80;77.40
39931;DHT22;26635;-35.248;149.138;2023-09-12T01:51:07;14.80;78.00
39931;DHT22;26635;-35.248;149.138;2023-09-12T01:53:39;14.90;78.50
39931;DHT22;26635;-35.248;149.138;2023-09-12T01:56:12;15.00;78.00
39931;DHT22;26635;-35.248;149.138;2023-09-12T01:58:43;15.20;78.10
39931;DHT22;26635;-35.248;149.138;2023-09-12T02:01:14;15.40;78.10
39931;DHT22;26635;-35.248;149.138;2023-09-12T02:03:45;15.50;76.50
39931;DHT22;26635;-35.248;149.138;2023-09-12T02:06:16;15.50;74.10
39931;DHT22;26635;-35.248;149.138;2023-09-12T02:08:49;15.40;75.00
39931;DHT22;26635;-35.248;149.138;2023-09-12T02:11:21;15.40;74.50
39931;DHT22;26635;-35.248;149.138;2023-09-12T02:13:51;15.30;75.70
39931;DHT22;26635;-35.248;149.138;2023-09-12T02:16:22;15.30;76.60
39931;DHT22;26635;-35.248;149.138;2023-09-12T02:18:52;15.40;76.80
39931;DHT22;26635;-35.248;149.138;2023-09-12T02:21:23;15.50;77.40
39931;DHT22;26635;-35.248;149.138;2023-09-12T02:23:54;15.70;75.50
39931;DHT22;26635;-35.248;149.138;2023-09-12T02:26:24;15.70;75.00
39931;DHT22;26635;-35.248;149.138;2023-09-12T02:28:54;15.90;75.50
39931;DHT22;26635;-35.248;149.138;2023-09-12T02:31:25;16.00;74.10
39931;DHT22;26635;-35.248;149.138;2023-09-12T02:33:55;16.10;74.70
39931;DHT22;26635;-35.248;149.138;2023-09-12T02:36:25;16.30;75.30
39931;DHT22;26635;-35.248;149.138;2023-09-12T02:38:56;16.50;75.40
39931;DHT22;26635;-35.248;149.138;2023-09-12T02:41:27;16.70;75.40
39931;DHT22;26635;-35.248;149.138;2023-09-12T02:43:58;17.00;75.50
39931;DHT22;26635;-35.248;149.138;2023-09-12T02:46:29;17.00;73.00
39931;DHT22;26635;-35.248;149.138;2023-09-12T02:49:01;17.00;72.10
39931;DHT22;26635;-35.248;149.138;2023-09-12T02:51:32;17.00;73.40
39931;DHT22;26635;-35.248;149.138;2023-09-12T02:54:03;17.20;73.10
39931;DHT22;26635;-35.248;149.138;2023-09-12T02:56:34;17.10;71.80
39931;DHT22;26635;-35.248;149.138;2023-09-12T02:59:05;17.10;71.10
39931;DHT22;26635;-35.248;149.138;2023-09-12T03:01:37;17.30;72.80
39931;DHT22;26635;-35.248;149.138;2023-09-12T03:04:09;17.30;71.10
39931;DHT22;26635;-35.248;149.138;2023-09-12T03:06:39;17.40;70.60
39931;DHT22;26635;-35.248;149.138;2023-09-12T03:09:10;17.30;70.60
39931;DHT22;26635;-35.248;149.138;2023-09-12T03:11:41;17.30;70.40
39931;DHT22;26635;-35.248;149.138;2023-09-12T03:14:11;17.30;70.10
39931;DHT22;26635;-35.248;149.138;2023-09-12T03:16:42;17.30;69.70
39931;DHT22;26635;-35.248;149.138;2023-09-12T03:19:12;17.30;70.00
39931;DHT22;26635;-35.248;149.138;2023-09-12T03:21:43;17.20;70.40
39931;DHT22;26635;-35.248;149.138;2023-09-12T03:24:13;17.20;70.50
39931;DHT22;26635;-35.248;149.138;2023-09-12T03:26:44;17.20;70.60
39931;DHT22;26635;-35.248;149.138;2023-09-12T03:29:14;17.20;71.40
39931;DHT22;26635;-35.248;149.138;2023-09-12T03:31:45;17.20;71.70
39931;DHT22;26635;-35.248;149.138;2023-09-12T03:34:15;17.30;70.80
39931;DHT22;26635;-35.248;149.138;2023-09-12T03:36:45;17.40;70.70
39931;DHT22;26635;-35.248;149.138;2023-09-12T03:39:16;17.40;70.40
39931;DHT22;26635;-35.248;149.138;2023-09-12T03:41:46;17.50;69.80
39931;DHT22;26635;-35.248;149.138;2023-09-12T03:44:17;17.50;70.40
39931;DHT22;26635;-35.248;149.138;2023-09-12T03:46:47;17.50;70.10
39931;DHT22;26635;-35.248;149.138;2023-09-12T03:49:18;17.50;70.50
39931;DHT22;26635;-35.248;149.138;2023-09-12T03:51:48;17.60;70.30
39931;DHT22;26635;-35.248;149.138;2023-09-12T03:54:18;17.60;70.20
39931;DHT22;26635;-35.248;149.138;2023-09-12T03:56:49;17.70;68.30
39931;DHT22;26635;-35.248;149.138;2023-09-12T03:59:19;17.70;68.60
39931;DHT22;26635;-35.248;149.138;2023-09-12T04:01:50;17.70;68.50
39931;DHT22;26635;-35.248;149.138;2023-09-12T04:04:20;17.80;68.00
39931;DHT22;26635;-35.248;149.138;2023-09-12T04:06:51;17.80;69.40
39931;DHT22;26635;-35.248;149.138;2023-09-12T04:09:21;17.90;69.10
39931;DHT22;26635;-35.248;149.138;2023-09-12T04:11:51;17.90;69.40
39931;DHT22;26635;-35.248;149.138;2023-09-12T04:14:22;18.00;68.70
39931;DHT22;26635;-35.248;149.138;2023-09-12T04:16:52;18.00;69.80
39931;DHT22;26635;-35.248;149.138;2023-09-12T04:19:23;18.10;69.20
39931;DHT22;26635;-35.248;149.138;2023-09-12T04:21:53;18.10;69.10
39931;DHT22;26635;-35.248;149.138;2023-09-12T04:24:23;18.10;68.30
39931;DHT22;26635;-35.248;149.138;2023-09-12T04:26:54;18.10;67.60
39931;DHT22;26635;-35.248;149.138;2023-09-12T04:29:25;18.00;69.10
39931;DHT22;26635;-35.248;149.138;2023-09-12T04:31:56;17.90;69.30
39931;DHT22;26635;-35.248;149.138;2023-09-12T04:34:29;17.90;69.40
39931;DHT22;26635;-35.248;149.138;2023-09-12T04:37:00;18.00;68.80
39931;DHT22;26635;-35.248;149.138;2023-09-12T04:39:32;18.00;69.70
39931;DHT22;26635;-35.248;149.138;2023-09-12T04:42:03;18.00;70.50
39931;DHT22;26635;-35.248;149.138;2023-09-12T04:44:38;18.00;69.50
39931;DHT22;26635;-35.248;149.138;2023-09-12T04:47:09;18.00;69.30
39931;DHT22;26635;-35.248;149.138;2023-09-12T04:49:40;18.00;69.30
39931;DHT22;26635;-35.248;149.138;2023-09-12T04:52:10;18.00;69.00
39931;DHT22;26635;-35.248;149.138;2023-09-12T04:54:40;18.00;68.90
39931;DHT22;26635;-35.248;149.138;2023-09-12T04:57:11;18.00;68.80
39931;DHT22;26635;-35.248;149.138;2023-09-12T04:59:41;17.90;69.40
39931;DHT22;26635;-35.248;149.138;2023-09-12T05:02:12;17.90;70.70
39931;DHT22;26635;-35.248;149.138;2023-09-12T05:04:42;17.90;68.40
39931;DHT22;26635;-35.248;149.138;2023-09-12T05:07:12;17.90;66.90
39931;DHT22;26635;-35.248;149.138;2023-09-12T05:09:43;18.00;67.60
39931;DHT22;26635;-35.248;149.138;2023-09-12T05:12:13;18.00;67.90
39931;DHT22;26635;-35.248;149.138;2023-09-12T05:14:43;18.10;66.20
39931;DHT22;26635;-35.248;149.138;2023-09-12T05:17:14;18.10;67.10
39931;DHT22;26635;-35.248;149.138;2023-09-12T05:19:44;18.10;66.40
39931;DHT22;26635;-35.248;149.138;2023-09-12T05:22:15;18.10;64.60
39931;DHT22;26635;-35.248;149.138;2023-09-12T05:24:45;18.10;65.70
39931;DHT22;26635;-35.248;149.138;2023-09-12T05:27:16;18.10;65.70
39931;DHT22;26635;-35.248;149.138;2023-09-12T05:29:46;18.00;65.30
39931;DHT22;26635;-35.248;149.138;2023-09-12T05:32:17;18.00;65.20
39931;DHT22;26635;-35.248;149.138;2023-09-12T05:34:47;17.90;66.30
39931;DHT22;26635;-35.248;149.138;2023-09-12T05:37:30;17.80;67.00
39931;DHT22;26635;-35.248;149.138;2023-09-12T05:40:00;17.70;67.40
39931;DHT22;26635;-35.248;149.138;2023-09-12T05:42:30;17.70;68.00
39931;DHT22;26635;-35.248;149.138;2023-09-12T05:45:01;17.60;68.20
39931;DHT22;26635;-35.248;149.138;2023-09-12T05:47:31;17.60;68.60
39931;DHT22;26635;-35.248;149.138;2023-09-12T05:50:02;17.50;68.20
39931;DHT22;26635;-35.248;149.138;2023-09-12T05:52:36;17.40;70.40
39931;DHT22;26635;-35.248;149.138;2023-09-12T05:55:07;17.30;71.80
39931;DHT22;26635;-35.248;149.138;2023-09-12T05:57:37;17.30;72.50
39931;DHT22;26635;-35.248;149.138;2023-09-12T06:00:08;17.20;71.90
39931;DHT22;26635;-35.248;149.138;2023-09-12T06:02:41;17.10;70.80
39931;DHT22;26635;-35.248;149.138;2023-09-12T06:05:12;17.10;71.10
39931;DHT22;26635;-35.248;149.138;2023-09-12T06:07:42;17.10;71.20
39931;DHT22;26635;-35.248;149.138;2023-09-12T06:10:13;17.00;70.50
39931;DHT22;26635;-35.248;149.138;2023-09-12T06:12:43;17.00;70.30
39931;DHT22;26635;-35.248;149.138;2023-09-12T06:15:14;17.00;69.60
39931;DHT22;26635;-35.248;149.138;2023-09-12T06:17:44;16.90;70.10
39931;DHT22;26635;-35.248;149.138;2023-09-12T06:20:15;16.90;70.20
39931;DHT22;26635;-35.248;149.138;2023-09-12T06:22:45;16.80;69.40
39931;DHT22;26635;-35.248;149.138;2023-09-12T06:25:16;16.80;69.40
39931;DHT22;26635;-35.248;149.138;2023-09-12T06:27:46;16.80;69.50
39931;DHT22;26635;-35.248;149.138;2023-09-12T06:30:16;16.70;69.10
39931;DHT22;26635;-35.248;149.138;2023-09-12T06:32:48;16.60;68.10
39931;DHT22;26635;-35.248;149.138;2023-09-12T06:35:18;16.60;68.40
39931;DHT22;26635;-35.248;149.138;2023-09-12T06:37:49;16.50;68.60
39931;DHT22;26635;-35.248;149.138;2023-09-12T06:40:19;16.50;69.80
39931;DHT22;26635;-35.248;149.138;2023-09-12T06:42:50;16.40;70.20
39931;DHT22;26635;-35.248;149.138;2023-09-12T06:45:20;16.40;70.70
39931;DHT22;26635;-35.248;149.138;2023-09-12T06:47:50;16.40;71.70
39931;DHT22;26635;-35.248;149.138;2023-09-12T06:50:21;16.40;72.50
39931;DHT22;26635;-35.248;149.138;2023-09-12T06:52:56;16.30;73.70
39931;DHT22;26635;-35.248;149.138;2023-09-12T06:55:28;16.20;74.90
39931;DHT22;26635;-35.248;149.138;2023-09-12T06:57:59;16.20;75.80
39931;DHT22;26635;-35.248;149.138;2023-09-12T07:00:29;16.10;75.80
39931;DHT22;26635;-35.248;149.138;2023-09-12T07:03:00;16.10;75.80
39931;DHT22;26635;-35.248;149.138;2023-09-12T07:05:31;16.00;74.80
39931;DHT22;26635;-35.248;149.138;2023-09-12T07:08:01;16.00;74.90
39931;DHT22;26635;-35.248;149.138;2023-09-12T07:10:32;15.90;75.30
39931;DHT22;26635;-35.248;149.138;2023-09-12T07:13:02;15.80;75.60
39931;DHT22;26635;-35.248;149.138;2023-09-12T07:15:36;15.70;76.10
39931;DHT22;26635;-35.248;149.138;2023-09-12T07:18:06;15.70;76.40
39931;DHT22;26635;-35.248;149.138;2023-09-12T07:20:37;15.70;76.70
39931;DHT22;26635;-35.248;149.138;2023-09-12T07:23:08;15.60;76.90
39931;DHT22;26635;-35.248;149.138;2023-09-12T07:25:40;15.50;77.10
39931;DHT22;26635;-35.248;149.138;2023-09-12T07:28:10;15.50;77.40
39931;DHT22;26635;-35.248;149.138;2023-09-12T07:30:44;15.40;78.10
39931;DHT22;26635;-35.248;149.138;2023-09-12T07:33:15;15.30;78.60
39931;DHT22;26635;-35.248;149.138;2023-09-12T07:35:46;15.20;79.20
39931;DHT22;26635;-35.248;149.138;2023-09-12T07:38:16;15.10;79.30
39931;DHT22;26635;-35.248;149.138;2023-09-12T07:40:47;15.00;79.80
39931;DHT22;26635;-35.248;149.138;2023-09-12T07:43:17;15.00;80.20
39931;DHT22;26635;-35.248;149.138;2023-09-12T07:45:47;14.90;80.70
39931;DHT22;26635;-35.248;149.138;2023-09-12T07:48:18;14.80;81.10
39931;DHT22;26635;-35.248;149.138;2023-09-12T07:50:49;14.80;81.90
39931;DHT22;26635;-35.248;149.138;2023-09-12T07:53:23;14.70;82.10
39931;DHT22;26635;-35.248;149.138;2023-09-12T07:55:53;14.60;82.60
39931;DHT22;26635;-35.248;149.138;2023-09-12T07:58:24;14.60;82.90
39931;DHT22;26635;-35.248;149.138;2023-09-12T08:00:55;14.50;83.40
39931;DHT22;26635;-35.248;149.138;2023-09-12T08:03:25;14.50;83.80
39931;DHT22;26635;-35.248;149.138;2023-09-12T08:05:57;14.40;84.20
39931;DHT22;26635;-35.248;149.138;2023-09-12T08:08:28;14.30;84.30
39931;DHT22;26635;-35.248;149.138;2023-09-12T08:10:58;14.20;85.00
39931;DHT22;26635;-35.248;149.138;2023-09-12T08:13:29;14.10;85.40
39931;DHT22;26635;-35.248;149.138;2023-09-12T08:16:00;14.10;85.70
39931;DHT22;26635;-35.248;149.138;2023-09-12T08:18:31;14.00;85.80
39931;DHT22;26635;-35.248;149.138;2023-09-12T08:21:01;13.90;86.00
39931;DHT22;26635;-35.248;149.138;2023-09-12T08:23:32;13.90;86.20
39931;DHT22;26635;-35.248;149.138;2023-09-12T08:26:02;13.80;86.70
39931;DHT22;26635;-35.248;149.138;2023-09-12T08:28:33;13.80;86.80
39931;DHT22;26635;-35.248;149.138;2023-09-12T08:31:03;13.70;86.80
39931;DHT22;26635;-35.248;149.138;2023-09-12T08:33:34;13.70;87.10
39931;DHT22;26635;-35.248;149.138;2023-09-12T08:36:04;13.60;87.40
39931;DHT22;26635;-35.248;149.138;2023-09-12T08:38:34;13.60;87.30
39931;DHT22;26635;-35.248;149.138;2023-09-12T08:41:06;13.50;87.30
39931;DHT22;26635;-35.248;149.138;2023-09-12T08:43:37;13.50;87.80
39931;DHT22;26635;-35.248;149.138;2023-09-12T08:46:08;13.40;89.00
39931;DHT22;26635;-35.248;149.138;2023-09-12T08:48:41;13.30;88.20
39931;DHT22;26635;-35.248;149.138;2023-09-12T08:51:13;13.20;88.40
39931;DHT22;26635;-35.248;149.138;2023-09-12T08:53:43;13.20;88.60
39931;DHT22;26635;-35.248;149.138;2023-09-12T08:56:14;13.10;88.60
39931;DHT22;26635;-35.248;149.138;2023-09-12T08:58:44;13.10;88.90
39931;DHT22;26635;-35.248;149.138;2023-09-12T09:01:16;13.00;88.90
39931;DHT22;26635;-35.248;149.138;2023-09-12T09:03:48;12.90;88.90
39931;DHT22;26635;-35.248;149.138;2023-09-12T09:06:20;12.80;89.40
39931;DHT22;26635;-35.248;149.138;2023-09-12T09:08:51;12.70;89.60
39931;DHT22;26635;-35.248;149.138;2023-09-12T09:11:22;12.60;89.60
39931;DHT22;26635;-35.248;149.138;2023-09-12T09:13:57;12.60;90.10
39931;DHT22;26635;-35.248;149.138;2023-09-12T09:16:28;12.50;90.30
39931;DHT22;26635;-35.248;149.138;2023-09-12T09:19:03;12.40;90.10
39931;DHT22;26635;-35.248;149.138;2023-09-12T09:21:36;12.30;90.50
39931;DHT22;26635;-35.248;149.138;2023-09-12T09:24:12;12.30;90.60
39931;DHT22;26635;-35.248;149.138;2023-09-12T09:26:51;12.20;90.70
39931;DHT22;26635;-35.248;149.138;2023-09-12T09:29:28;12.10;90.90
39931;DHT22;26635;-35.248;149.138;2023-09-12T09:32:01;12.00;90.90
39931;DHT22;26635;-35.248;149.138;2023-09-12T09:34:39;12.00;91.00
39931;DHT22;26635;-35.248;149.138;2023-09-12T09:37:11;11.90;90.90
39931;DHT22;26635;-35.248;149.138;2023-09-12T09:39:44;11.90;91.10
39931;DHT22;26635;-35.248;149.138;2023-09-12T09:42:15;11.80;91.20
39931;DHT22;26635;-35.248;149.138;2023-09-12T09:44:47;11.70;91.30
39931;DHT22;26635;-35.248;149.138;2023-09-12T09:47:18;11.70;91.40
39931;DHT22;26635;-35.248;149.138;2023-09-12T09:49:51;11.60;91.50
39931;DHT22;26635;-35.248;149.138;2023-09-12T09:52:28;11.60;91.50
39931;DHT22;26635;-35.248;149.138;2023-09-12T09:54:58;11.60;91.60
39931;DHT22;26635;-35.248;149.138;2023-09-12T09:57:29;11.50;91.40
39931;DHT22;26635;-35.248;149.138;2023-09-12T10:00:02;11.40;91.70
39931;DHT22;26635;-35.248;149.138;2023-09-12T10:02:39;11.30;91.90
39931;DHT22;26635;-35.248;149.138;2023-09-12T10:05:11;11.30;91.80
39931;DHT22;26635;-35.248;149.138;2023-09-12T10:07:49;11.30;91.60
39931;DHT22;26635;-35.248;149.138;2023-09-12T10:10:25;11.20;91.70
39931;DHT22;26635;-35.248;149.138;2023-09-12T10:12:59;11.10;91.80
39931;DHT22;26635;-35.248;149.138;2023-09-12T10:15:33;11.00;92.30
39931;DHT22;26635;-35.248;149.138;2023-09-12T10:18:08;11.00;92.60
39931;DHT22;26635;-35.248;149.138;2023-09-12T10:20:58;10.90;92.50
39931;DHT22;26635;-35.248;149.138;2023-09-12T10:23:38;10.90;92.20
39931;DHT22;26635;-35.248;149.138;2023-09-12T10:26:13;10.80;92.30
39931;DHT22;26635;-35.248;149.138;2023-09-12T10:28:46;10.80;92.30
39931;DHT22;26635;-35.248;149.138;2023-09-12T10:31:17;10.70;92.30
39931;DHT22;26635;-35.248;149.138;2023-09-12T10:33:50;10.70;92.30
39931;DHT22;26635;-35.248;149.138;2023-09-12T10:36:21;10.60;92.40
39931;DHT22;26635;-35.248;149.138;2023-09-12T10:38:52;10.60;92.60
39931;DHT22;26635;-35.248;149.138;2023-09-12T10:41:24;10.50;92.70
39931;DHT22;26635;-35.248;149.138;2023-09-12T10:43:57;10.50;92.70
39931;DHT22;26635;-35.248;149.138;2023-09-12T10:46:28;10.40;92.70
39931;DHT22;26635;-35.248;149.138;2023-09-12T10:49:01;10.40;93.00
39931;DHT22;26635;-35.248;149.138;2023-09-12T10:51:32;10.30;93.00
39931;DHT22;26635;-35.248;149.138;2023-09-12T10:54:03;10.20;93.10
39931;DHT22;26635;-35.248;149.138;2023-09-12T10:56:33;10.10;93.10
39931;DHT22;26635;-35.248;149.138;2023-09-12T11:01:40;10.00;92.60
39931;DHT22;26635;-35.248;149.138;2023-09-12T11:06:55;9.90;92.90
39931;DHT22;26635;-35.248;149.138;2023-09-12T11:09:28;9.90;93.30
39931;DHT22;26635;-35.248;149.138;2023-09-12T11:12:03;9.90;93.20
39931;DHT22;26635;-35.248;149.138;2023-09-12T11:14:34;9.80;93.50
39931;DHT22;26635;-35.248;149.138;2023-09-12T11:19:51;9.70;92.20
39931;DHT22;26635;-35.248;149.138;2023-09-12T11:24:56;9.50;93.70
39931;DHT22;26635;-35.248;149.138;2023-09-12T11:30:24;9.40;93.30
39931;DHT22;26635;-35.248;149.138;2023-09-12T11:32:55;9.40;93.80
39931;DHT22;26635;-35.248;149.138;2023-09-12T11:35:29;9.40;93.40
39931;DHT22;26635;-35.248;149.138;2023-09-12T11:38:00;9.30;93.40
39931;DHT22;26635;-35.248;149.138;2023-09-12T11:43:05;9.20;93.80
39931;DHT22;26635;-35.248;149.138;2023-09-12T11:45:36;9.20;94.00
39931;DHT22;26635;-35.248;149.138;2023-09-12T11:48:12;9.20;94.00
39931;DHT22;26635;-35.248;149.138;2023-09-12T11:50:42;9.20;93.80
39931;DHT22;26635;-35.248;149.138;2023-09-12T11:53:25;9.20;94.30
39931;DHT22;26635;-35.248;149.138;2023-09-12T11:55:59;9.20;94.20
39931;DHT22;26635;-35.248;149.138;2023-09-12T11:58:30;9.10;93.80
39931;DHT22;26635;-35.248;149.138;2023-09-12T12:01:02;9.10;94.50
39931;DHT22;26635;-35.248;149.138;2023-09-12T12:03:33;9.20;94.50
39931;DHT22;26635;-35.248;149.138;2023-09-12T12:06:04;9.20;94.20
39931;DHT22;26635;-35.248;149.138;2023-09-12T12:08:37;9.10;95.00
39931;DHT22;26635;-35.248;149.138;2023-09-12T12:11:07;9.10;94.80
39931;DHT22;26635;-35.248;149.138;2023-09-12T12:13:37;9.10;94.70
39931;DHT22;26635;-35.248;149.138;2023-09-12T12:16:17;9.20;94.40
39931;DHT22;26635;-35.248;149.138;2023-09-12T12:18:48;9.20;94.50
39931;DHT22;26635;-35.248;149.138;2023-09-12T12:21:23;9.20;94.50
39931;DHT22;26635;-35.248;149.138;2023-09-12T12:24:03;9.10;94.70
39931;DHT22;26635;-35.248;149.138;2023-09-12T12:26:34;9.10;94.80
39931;DHT22;26635;-35.248;149.138;2023-09-12T12:29:05;9.10;94.80
39931;DHT22;26635;-35.248;149.138;2023-09-12T12:31:36;9.10;94.50
39931;DHT22;26635;-35.248;149.138;2023-09-12T12:34:06;9.10;94.40
39931;DHT22;26635;-35.248;149.138;2023-09-12T12:36:57;9.10;94.30
39931;DHT22;26635;-35.248;149.138;2023-09-12T12:39:27;9.10;94.20
39931;DHT22;26635;-35.248;149.138;2023-09-12T12:41:58;9.00;94.10
39931;DHT22;26635;-35.248;149.138;2023-09-12T12:44:35;9.00;94.30
39931;DHT22;26635;-35.248;149.138;2023-09-12T12:47:09;8.90;94.00
39931;DHT22;26635;-35.248;149.138;2023-09-12T12:49:41;8.80;94.10
39931;DHT22;26635;-35.248;149.138;2023-09-12T12:52:13;8.70;94.20
39931;DHT22;26635;-35.248;149.138;2023-09-12T12:54:44;8.70;94.40
39931;DHT22;26635;-35.248;149.138;2023-09-12T12:57:19;8.60;94.20
39931;DHT22;26635;-35.248;149.138;2023-09-12T12:59:50;8.60;94.20
39931;DHT22;26635;-35.248;149.138;2023-09-12T13:02:20;8.60;94.50
39931;DHT22;26635;-35.248;149.138;2023-09-12T13:04:50;8.50;94.30
39931;DHT22;26635;-35.248;149.138;2023-09-12T13:07:21;8.50;94.10
39931;DHT22;26635;-35.248;149.138;2023-09-12T13:09:51;8.40;94.20
39931;DHT22;26635;-35.248;149.138;2023-09-12T13:12:22;8.40;94.60
39931;DHT22;26635;-35.248;149.138;2023-09-12T13:14:53;8.30;94.60
39931;DHT22;26635;-35.248;149.138;2023-09-12T13:17:24;8.20;94.30
39931;DHT22;26635;-35.248;149.138;2023-09-12T13:19:55;8.20;94.20
39931;DHT22;26635;-35.248;149.138;2023-09-12T13:22:26;8.10;94.10
39931;DHT22;26635;-35.248;149.138;2023-09-12T13:24:56;8.10;93.90
39931;DHT22;26635;-35.248;149.138;2023-09-12T13:27:27;8.10;94.00
39931;DHT22;26635;-35.248;149.138;2023-09-12T13:29:58;8.00;94.00
39931;DHT22;26635;-35.248;149.138;2023-09-12T13:32:29;7.90;94.40
39931;DHT22;26635;-35.248;149.138;2023-09-12T13:34:59;7.90;94.10
39931;DHT22;26635;-35.248;149.138;2023-09-12T13:37:30;7.80;94.30
39931;DHT22;26635;-35.248;149.138;2023-09-12T13:40:00;7.80;94.80
39931;DHT22;26635;-35.248;149.138;2023-09-12T13:42:32;7.70;94.30
39931;DHT22;26635;-35.248;149.138;2023-09-12T13:45:02;7.70;94.30
39931;DHT22;26635;-35.248;149.138;2023-09-12T13:47:32;7.70;94.50
39931;DHT22;26635;-35.248;149.138;2023-09-12T13:50:03;7.60;94.90
39931;DHT22;26635;-35.248;149.138;2023-09-12T13:52:33;7.60;94.40
39931;DHT22;26635;-35.248;149.138;2023-09-12T13:55:04;7.50;94.80
39931;DHT22;26635;-35.248;149.138;2023-09-12T13:57:35;7.60;94.70
39931;DHT22;26635;-35.248;149.138;2023-09-12T14:00:14;7.50;95.30
39931;DHT22;26635;-35.248;149.138;2023-09-12T14:02:50;7.50;94.30
39931;DHT22;26635;-35.248;149.138;2023-09-12T14:05:21;7.40;95.10
39931;DHT22;26635;-35.248;149.138;2023-09-12T14:07:52;7.40;94.80
39931;DHT22;26635;-35.248;149.138;2023-09-12T14:10:23;7.40;95.00
39931;DHT22;26635;-35.248;149.138;2023-09-12T14:13:04;7.40;94.70
39931;DHT22;26635;-35.248;149.138;2023-09-12T14:15:48;7.30;95.00
39931;DHT22;26635;-35.248;149.138;2023-09-12T14:18:27;7.20;95.00
39931;DHT22;26635;-35.248;149.138;2023-09-12T14:20:58;7.20;94.40
39931;DHT22;26635;-35.248;149.138;2023-09-12T14:23:29;7.10;94.60
39931;DHT22;26635;-35.248;149.138;2023-09-12T14:26:00;7.10;94.60
39931;DHT22;26635;-35.248;149.138;2023-09-12T14:28:33;7.10;94.40
39931;DHT22;26635;-35.248;149.138;2023-09-12T14:31:04;7.00;94.40
39931;DHT22;26635;-35.248;149.138;2023-09-12T14:33:42;7.00;94.30
39931;DHT22;26635;-35.248;149.138;2023-09-12T14:36:13;6.90;94.30
39931;DHT22;26635;-35.248;149.138;2023-09-12T14:38:44;6.90;94.40
39931;DHT22;26635;-35.248;149.138;2023-09-12T14:41:15;6.90;94.50
39931;DHT22;26635;-35.248;149.138;2023-09-12T14:43:45;6.80;94.50
39931;DHT22;26635;-35.248;149.138;2023-09-12T14:46:15;6.80;95.50
39931;DHT22;26635;-35.248;149.138;2023-09-12T14:48:46;6.80;95.20
39931;DHT22;26635;-35.248;149.138;2023-09-12T14:51:28;6.70;94.80
39931;DHT22;26635;-35.248;149.138;2023-09-12T14:54:04;6.70;94.80
39931;DHT22;26635;-35.248;149.138;2023-09-12T14:56:35;6.60;94.70
39931;DHT22;26635;-35.248;149.138;2023-09-12T14:59:05;6.60;94.60
39931;DHT22;26635;-35.248;149.138;2023-09-12T15:01:37;6.60;94.70
39931;DHT22;26635;-35.248;149.138;2023-09-12T15:04:07;6.50;94.90
39931;DHT22;26635;-35.248;149.138;2023-09-12T15:06:39;6.50;95.10
39931;DHT22;26635;-35.248;149.138;2023-09-12T15:09:09;6.40;94.90
39931;DHT22;26635;-35.248;149.138;2023-09-12T15:11:40;6.40;94.50
39931;DHT22;26635;-35.248;149.138;2023-09-12T15:14:10;6.40;94.60
39931;DHT22;26635;-35.248;149.138;2023-09-12T15:16:41;6.40;94.60
39931;DHT22;26635;-35.248;149.138;2023-09-12T15:19:11;6.30;94.40
39931;DHT22;26635;-35.248;149.138;2023-09-12T15:21:42;6.20;94.50
39931;DHT22;26635;-35.248;149.138;2023-09-12T15:24:12;6.20;94.80
39931;DHT22;26635;-35.248;149.138;2023-09-12T15:26:46;6.20;94.60
39931;DHT22;26635;-35.248;149.138;2023-09-12T15:29:16;6.10;94.90
39931;DHT22;26635;-35.248;149.138;2023-09-12T15:31:46;6.10;95.10
39931;DHT22;26635;-35.248;149.138;2023-09-12T15:34:17;6.00;94.70
39931;DHT22;26635;-35.248;149.138;2023-09-12T15:36:48;6.00;94.70
39931;DHT22;26635;-35.248;149.138;2023-09-12T15:39:18;5.90;94.60
39931;DHT22;26635;-35.248;149.138;2023-09-12T15:41:49;5.90;95.00